sensor_id;sensor_type;location;lat;lon;timestamp;temperature;humidity
27506;DHT22;14939;43.596;1.320;2023-04-25T00:00:35;13.40;99.90
27506;DHT22;14939;43.596;1.320;2023-04-25T00:03:01;13.40;99.90
27506;DHT22;14939;43.596;1.320;2023-04-25T00:05:27;13.40;99.90
27506;DHT22;14939;43.596;1.320;2023-04-25T00:07:53;13.40;99.90
27506;DHT22;14939;43.596;1.320;2023-04-25T00:10:19;13.40;99.90
27506;DHT22;14939;43.596;1.320;2023-04-25T00:12:45;13.40;99.90
27506;DHT22;14939;43.596;1.320;2023-04-25T00:15:12;13.40;99.90
27506;DHT22;14939;43.596;1.320;2023-04-25T00:17:37;13.40;99.90
27506;DHT22;14939;43.596;1.320;2023-04-25T00:20:06;13.40;99.90
27506;DHT22;14939;43.596;1.320;2023-04-25T00:22:35;13.40;99.90
27506;DHT22;14939;43.596;1.320;2023-04-25T00:25:04;13.40;99.90
27506;DHT22;14939;43.596;1.320;2023-04-25T00:27:29;13.50;99.90
27506;DHT22;14939;43.596;1.320;2023-04-25T00:29:55;13.50;99.90
27506;DHT22;14939;43.596;1.320;2023-04-25T00:32:21;13.50;99.90
27506;DHT22;14939;43.596;1.320;2023-04-25T00:34:47;13.50;99.90
27506;DHT22;14939;43.596;1.320;2023-04-25T00:37:12;13.50;99.90
27506;DHT22;14939;43.596;1.320;2023-04-25T00:39:38;13.50;99.90
27506;DHT22;14939;43.596;1.320;2023-04-25T00:42:04;13.50;99.90
27506;DHT22;14939;43.596;1.320;2023-04-25T00:44:30;13.50;99.90
27506;DHT22;14939;43.596;1.320;2023-04-25T00:46:57;13.50;99.90
27506;DHT22;14939;43.596;1.320;2023-04-25T00:49:23;13.50;99.90
27506;DHT22;14939;43.596;1.320;2023-04-25T00:51:49;13.50;99.90
27506;DHT22;14939;43.596;1.320;2023-04-25T00:54:15;13.50;99.90
27506;DHT22;14939;43.596;1.320;2023-04-25T00:56:41;13.50;99.90
27506;DHT22;14939;43.596;1.320;2023-04-25T00:59:09;13.50;99.90
27506;DHT22;14939;43.596;1.320;2023-04-25T01:01:35;13.50;99.90
27506;DHT22;14939;43.596;1.320;2023-04-25T01:04:01;13.50;99.90
27506;DHT22;14939;43.596;1.320;2023-04-25T01:06:27;13.50;99.90
27506;DHT22;14939;43.596;1.320;2023-04-25T01:08:54;13.50;99.90
27506;DHT22;14939;43.596;1.320;2023-04-25T01:11:19;13.50;99.90
27506;DHT22;14939;43.596;1.320;2023-04-25T01:13:45;13.50;99.90
27506;DHT22;14939;43.596;1.320;2023-04-25T01:16:11;13.50;99.90
27506;DHT22;14939;43.596;1.320;2023-04-25T01:18:39;13.50;99.90
27506;DHT22;14939;43.596;1.320;2023-04-25T01:21:12;13.50;99.90
27506;DHT22;14939;43.596;1.320;2023-04-25T01:23:42;13.50;99.90
27506;DHT22;14939;43.596;1.320;2023-04-25T01:26:12;13.50;99.90
27506;DHT22;14939;43.596;1.320;2023-04-25T01:28:39;13.50;99.90
27506;DHT22;14939;43.596;1.320;2023-04-25T01:31:09;13.40;99.90
27506;DHT22;14939;43.596;1.320;2023-04-25T01:33:35;13.40;99.90
27506;DHT22;14939;43.596;1.320;2023-04-25T01:36:01;13.40;99.90
27506;DHT22;14939;43.596;1.320;2023-04-25T01:38:26;13.40;99.90
27506;DHT22;14939;43.596;1.320;2023-04-25T01:40:53;13.40;99.90
27506;DHT22;14939;43.596;1.320;2023-04-25T01:43:20;13.40;99.90
27506;DHT22;14939;43.596;1.320;2023-04-25T01:45:46;13.40;99.90
27506;DHT22;14939;43.596;1.320;2023-04-25T01:48:14;13.40;99.90
27506;DHT22;14939;43.596;1.320;2023-04-25T01:50:40;13.40;99.90
27506;DHT22;14939;43.596;1.320;2023-04-25T01:53:09;13.40;99.90
27506;DHT22;14939;43.596;1.320;2023-04-25T01:55:36;13.40;99.90
27506;DHT22;14939;43.596;1.320;2023-04-25T01:58:03;13.50;99.90
27506;DHT22;14939;43.596;1.320;2023-04-25T02:00:29;13.50;99.90
27506;DHT22;14939;43.596;1.320;2023-04-25T02:02:58;13.50;99.90
27506;DHT22;14939;43.596;1.320;2023-04-25T02:05:34;13.50;99.90
27506;DHT22;14939;43.596;1.320;2023-04-25T02:08:01;13.50;99.90
27506;DHT22;14939;43.596;1.320;2023-04-25T02:10:26;13.50;99.90
27506;DHT22;14939;43.596;1.320;2023-04-25T02:12:57;13.50;99.90
27506;DHT22;14939;43.596;1.320;2023-04-25T02:15:23;13.40;99.90
27506;DHT22;14939;43.596;1.320;2023-04-25T02:17:55;13.40;99.90
27506;DHT22;14939;43.596;1.320;2023-04-25T02:20:24;13.40;99.90
27506;DHT22;14939;43.596;1.320;2023-04-25T02:22:52;13.40;99.90
27506;DHT22;14939;43.596;1.320;2023-04-25T02:25:21;13.30;99.90
27506;DHT22;14939;43.596;1.320;2023-04-25T02:27:50;13.30;99.90
27506;DHT22;14939;43.596;1.320;2023-04-25T02:30:17;13.30;99.90
27506;DHT22;14939;43.596;1.320;2023-04-25T02:32:43;13.30;99.90
27506;DHT22;14939;43.596;1.320;2023-04-25T02:35:09;13.30;99.90
27506;DHT22;14939;43.596;1.320;2023-04-25T02:37:37;13.40;99.90
27506;DHT22;14939;43.596;1.320;2023-04-25T02:40:03;13.40;99.90
27506;DHT22;14939;43.596;1.320;2023-04-25T02:42:30;13.40;99.90
27506;DHT22;14939;43.596;1.320;2023-04-25T02:44:56;13.50;99.90
27506;DHT22;14939;43.596;1.320;2023-04-25T02:47:22;13.50;99.90
27506;DHT22;14939;43.596;1.320;2023-04-25T02:49:48;13.50;99.90
27506;DHT22;14939;43.596;1.320;2023-04-25T02:52:16;13.50;99.90
27506;DHT22;14939;43.596;1.320;2023-04-25T02:54:43;13.50;99.90
27506;DHT22;14939;43.596;1.320;2023-04-25T02:57:11;13.50;99.90
27506;DHT22;14939;43.596;1.320;2023-04-25T02:59:39;13.50;99.90
27506;DHT22;14939;43.596;1.320;2023-04-25T03:02:07;13.50;99.90
27506;DHT22;14939;43.596;1.320;2023-04-25T03:04:33;13.50;99.90
27506;DHT22;14939;43.596;1.320;2023-04-25T03:07:11;13.50;99.90
27506;DHT22;14939;43.596;1.320;2023-04-25T03:09:37;13.50;99.90
27506;DHT22;14939;43.596;1.320;2023-04-25T03:12:03;13.50;99.90
27506;DHT22;14939;43.596;1.320;2023-04-25T03:14:32;13.50;99.90
27506;DHT22;14939;43.596;1.320;2023-04-25T03:16:58;13.50;99.90
27506;DHT22;14939;43.596;1.320;2023-04-25T03:19:26;13.50;99.90
27506;DHT22;14939;43.596;1.320;2023-04-25T03:21:52;13.50;99.90
27506;DHT22;14939;43.596;1.320;2023-04-25T03:24:19;13.50;99.90
27506;DHT22;14939;43.596;1.320;2023-04-25T03:26:44;13.40;99.90
27506;DHT22;14939;43.596;1.320;2023-04-25T03:29:10;13.50;99.90
27506;DHT22;14939;43.596;1.320;2023-04-25T03:31:37;13.50;99.90
27506;DHT22;14939;43.596;1.320;2023-04-25T03:34:02;13.40;99.90
27506;DHT22;14939;43.596;1.320;2023-04-25T03:36:28;13.40;99.90
27506;DHT22;14939;43.596;1.320;2023-04-25T03:38:54;13.40;99.90
27506;DHT22;14939;43.596;1.320;2023-04-25T03:41:19;13.40;99.90
27506;DHT22;14939;43.596;1.320;2023-04-25T03:43:45;13.30;99.90
27506;DHT22;14939;43.596;1.320;2023-04-25T03:46:11;13.30;99.90
27506;DHT22;14939;43.596;1.320;2023-04-25T03:48:37;13.30;99.90
27506;DHT22;14939;43.596;1.320;2023-04-25T03:51:02;13.30;99.90
27506;DHT22;14939;43.596;1.320;2023-04-25T03:53:28;13.30;99.90
27506;DHT22;14939;43.596;1.320;2023-04-25T03:55:54;13.30;99.90
27506;DHT22;14939;43.596;1.320;2023-04-25T03:58:20;13.30;99.90
27506;DHT22;14939;43.596;1.320;2023-04-25T04:00:45;13.30;99.90
27506;DHT22;14939;43.596;1.320;2023-04-25T04:03:11;13.30;99.90
27506;DHT22;14939;43.596;1.320;2023-04-25T04:05:37;13.30;99.90
27506;DHT22;14939;43.596;1.320;2023-04-25T04:08:08;13.30;99.90
27506;DHT22;14939;43.596;1.320;2023-04-25T04:10:34;13.30;99.90
27506;DHT22;14939;43.596;1.320;2023-04-25T04:13:02;13.30;99.90
27506;DHT22;14939;43.596;1.320;2023-04-25T04:15:32;13.30;99.90
27506;DHT22;14939;43.596;1.320;2023-04-25T04:18:01;13.30;99.90
27506;DHT22;14939;43.596;1.320;2023-04-25T04:20:38;13.30;99.90
27506;DHT22;14939;43.596;1.320;2023-04-25T04:23:04;13.30;99.90
27506;DHT22;14939;43.596;1.320;2023-04-25T04:25:33;13.30;99.90
27506;DHT22;14939;43.596;1.320;2023-04-25T04:28:00;13.30;99.90
27506;DHT22;14939;43.596;1.320;2023-04-25T04:30:26;13.30;99.90
27506;DHT22;14939;43.596;1.320;2023-04-25T04:32:56;13.30;99.90
27506;DHT22;14939;43.596;1.320;2023-04-25T04:35:23;13.40;99.90
27506;DHT22;14939;43.596;1.320;2023-04-25T04:37:49;13.40;99.90
27506;DHT22;14939;43.596;1.320;2023-04-25T04:40:15;13.30;99.90
27506;DHT22;14939;43.596;1.320;2023-04-25T04:42:44;13.30;99.90
27506;DHT22;14939;43.596;1.320;2023-04-25T04:45:17;13.40;99.90
27506;DHT22;14939;43.596;1.320;2023-04-25T04:47:43;13.40;99.90
27506;DHT22;14939;43.596;1.320;2023-04-25T04:50:12;13.40;99.90
27506;DHT22;14939;43.596;1.320;2023-04-25T04:52:42;13.40;99.90
27506;DHT22;14939;43.596;1.320;2023-04-25T04:55:08;13.50;99.90
27506;DHT22;14939;43.596;1.320;2023-04-25T04:57:34;13.50;99.90
27506;DHT22;14939;43.596;1.320;2023-04-25T05:00:03;13.50;99.90
27506;DHT22;14939;43.596;1.320;2023-04-25T05:02:41;13.40;99.90
27506;DHT22;14939;43.596;1.320;2023-04-25T05:05:10;13.40;99.90
27506;DHT22;14939;43.596;1.320;2023-04-25T05:07:36;13.40;99.90
27506;DHT22;14939;43.596;1.320;2023-04-25T05:10:02;13.40;99.90
27506;DHT22;14939;43.596;1.320;2023-04-25T05:12:28;13.40;99.90
27506;DHT22;14939;43.596;1.320;2023-04-25T05:14:54;13.40;99.90
27506;DHT22;14939;43.596;1.320;2023-04-25T05:17:20;13.40;99.90
27506;DHT22;14939;43.596;1.320;2023-04-25T05:19:46;13.40;99.90
27506;DHT22;14939;43.596;1.320;2023-04-25T05:22:12;13.40;99.90
27506;DHT22;14939;43.596;1.320;2023-04-25T05:24:38;13.40;99.90
27506;DHT22;14939;43.596;1.320;2023-04-25T05:27:04;13.40;99.90
27506;DHT22;14939;43.596;1.320;2023-04-25T05:29:31;13.40;99.90
27506;DHT22;14939;43.596;1.320;2023-04-25T05:31:56;13.50;99.90
27506;DHT22;14939;43.596;1.320;2023-04-25T05:34:22;13.50;99.90
27506;DHT22;14939;43.596;1.320;2023-04-25T05:36:48;13.50;99.90
27506;DHT22;14939;43.596;1.320;2023-04-25T05:39:16;13.50;99.90
27506;DHT22;14939;43.596;1.320;2023-04-25T05:41:42;13.60;99.90
27506;DHT22;14939;43.596;1.320;2023-04-25T05:44:08;13.70;99.90
27506;DHT22;14939;43.596;1.320;2023-04-25T05:46:34;13.70;99.90
27506;DHT22;14939;43.596;1.320;2023-04-25T05:49:00;13.80;99.90
27506;DHT22;14939;43.596;1.320;2023-04-25T05:51:26;13.80;99.90
27506;DHT22;14939;43.596;1.320;2023-04-25T05:53:54;13.80;99.90
27506;DHT22;14939;43.596;1.320;2023-04-25T05:56:20;13.90;99.90
27506;DHT22;14939;43.596;1.320;2023-04-25T05:58:46;13.90;99.90
27506;DHT22;14939;43.596;1.320;2023-04-25T06:01:12;13.90;99.90
27506;DHT22;14939;43.596;1.320;2023-04-25T06:03:38;13.90;99.90
27506;DHT22;14939;43.596;1.320;2023-04-25T06:06:04;13.90;99.90
27506;DHT22;14939;43.596;1.320;2023-04-25T06:08:29;14.00;99.90
27506;DHT22;14939;43.596;1.320;2023-04-25T06:10:55;14.00;99.90
27506;DHT22;14939;43.596;1.320;2023-04-25T06:13:21;14.00;99.90
27506;DHT22;14939;43.596;1.320;2023-04-25T06:15:47;14.00;99.90
27506;DHT22;14939;43.596;1.320;2023-04-25T06:18:12;14.00;99.90
27506;DHT22;14939;43.596;1.320;2023-04-25T06:20:38;14.10;99.90
27506;DHT22;14939;43.596;1.320;2023-04-25T06:23:04;14.10;99.90
27506;DHT22;14939;43.596;1.320;2023-04-25T06:25:30;14.20;99.90
27506;DHT22;14939;43.596;1.320;2023-04-25T06:27:55;14.20;99.90
27506;DHT22;14939;43.596;1.320;2023-04-25T06:30:21;14.20;99.90
27506;DHT22;14939;43.596;1.320;2023-04-25T06:32:53;14.30;99.90
27506;DHT22;14939;43.596;1.320;2023-04-25T06:35:19;14.40;99.90
27506;DHT22;14939;43.596;1.320;2023-04-25T06:37:45;14.40;99.90
27506;DHT22;14939;43.596;1.320;2023-04-25T06:40:11;14.50;99.90
27506;DHT22;14939;43.596;1.320;2023-04-25T06:42:37;14.50;99.90
27506;DHT22;14939;43.596;1.320;2023-04-25T06:45:03;14.50;99.90
27506;DHT22;14939;43.596;1.320;2023-04-25T06:47:29;14.50;99.90
27506;DHT22;14939;43.596;1.320;2023-04-25T06:49:55;14.50;99.90
27506;DHT22;14939;43.596;1.320;2023-04-25T06:52:21;14.50;99.90
27506;DHT22;14939;43.596;1.320;2023-04-25T06:54:46;14.40;99.90
27506;DHT22;14939;43.596;1.320;2023-04-25T06:57:13;14.40;99.90
27506;DHT22;14939;43.596;1.320;2023-04-25T06:59:38;14.40;99.90
27506;DHT22;14939;43.596;1.320;2023-04-25T07:02:04;14.40;99.90
27506;DHT22;14939;43.596;1.320;2023-04-25T07:04:31;14.40;99.90
27506;DHT22;14939;43.596;1.320;2023-04-25T07:06:57;14.30;99.90
27506;DHT22;14939;43.596;1.320;2023-04-25T07:09:23;14.40;99.90
27506;DHT22;14939;43.596;1.320;2023-04-25T07:11:48;14.40;99.90
27506;DHT22;14939;43.596;1.320;2023-04-25T07:14:14;14.30;99.90
27506;DHT22;14939;43.596;1.320;2023-04-25T07:16:40;14.20;99.90
27506;DHT22;14939;43.596;1.320;2023-04-25T07:19:06;14.30;99.90
27506;DHT22;14939;43.596;1.320;2023-04-25T07:21:32;14.30;99.90
27506;DHT22;14939;43.596;1.320;2023-04-25T07:23:58;14.30;99.90
27506;DHT22;14939;43.596;1.320;2023-04-25T07:26:24;14.20;99.90
27506;DHT22;14939;43.596;1.320;2023-04-25T07:28:50;14.00;99.90
27506;DHT22;14939;43.596;1.320;2023-04-25T07:31:17;13.40;99.90
27506;DHT22;14939;43.596;1.320;2023-04-25T07:33:46;12.90;99.90
27506;DHT22;14939;43.596;1.320;2023-04-25T07:36:12;12.70;99.90
27506;DHT22;14939;43.596;1.320;2023-04-25T07:38:38;12.80;99.90
27506;DHT22;14939;43.596;1.320;2023-04-25T07:41:04;12.70;99.90
27506;DHT22;14939;43.596;1.320;2023-04-25T07:43:30;12.60;99.90
27506;DHT22;14939;43.596;1.320;2023-04-25T07:45:56;12.70;99.90
27506;DHT22;14939;43.596;1.320;2023-04-25T07:48:25;12.70;99.90
27506;DHT22;14939;43.596;1.320;2023-04-25T07:50:51;12.60;99.90
27506;DHT22;14939;43.596;1.320;2023-04-25T07:53:16;12.50;99.90
27506;DHT22;14939;43.596;1.320;2023-04-25T07:55:43;12.40;99.90
27506;DHT22;14939;43.596;1.320;2023-04-25T07:58:10;12.30;99.90
27506;DHT22;14939;43.596;1.320;2023-04-25T08:00:36;12.30;99.90
27506;DHT22;14939;43.596;1.320;2023-04-25T08:03:02;12.30;99.90
27506;DHT22;14939;43.596;1.320;2023-04-25T08:05:28;12.40;99.90
27506;DHT22;14939;43.596;1.320;2023-04-25T08:07:54;12.30;99.90
27506;DHT22;14939;43.596;1.320;2023-04-25T08:10:20;12.30;99.90
27506;DHT22;14939;43.596;1.320;2023-04-25T08:12:48;12.30;99.90
27506;DHT22;14939;43.596;1.320;2023-04-25T08:15:14;12.50;99.90
27506;DHT22;14939;43.596;1.320;2023-04-25T08:17:40;12.40;99.90
27506;DHT22;14939;43.596;1.320;2023-04-25T08:20:06;12.60;99.90
27506;DHT22;14939;43.596;1.320;2023-04-25T08:22:32;12.70;99.90
27506;DHT22;14939;43.596;1.320;2023-04-25T08:24:58;12.70;99.90
27506;DHT22;14939;43.596;1.320;2023-04-25T08:27:23;12.70;99.90
27506;DHT22;14939;43.596;1.320;2023-04-25T08:29:49;12.80;99.90
27506;DHT22;14939;43.596;1.320;2023-04-25T08:32:16;12.90;99.90
27506;DHT22;14939;43.596;1.320;2023-04-25T08:34:42;12.70;99.90
27506;DHT22;14939;43.596;1.320;2023-04-25T08:37:09;12.60;99.90
27506;DHT22;14939;43.596;1.320;2023-04-25T08:39:36;12.60;99.90
27506;DHT22;14939;43.596;1.320;2023-04-25T08:42:12;12.50;99.90
27506;DHT22;14939;43.596;1.320;2023-04-25T08:44:38;12.60;99.90
27506;DHT22;14939;43.596;1.320;2023-04-25T08:47:04;12.60;99.90
27506;DHT22;14939;43.596;1.320;2023-04-25T08:49:34;12.60;99.90
27506;DHT22;14939;43.596;1.320;2023-04-25T08:52:02;12.60;99.90
27506;DHT22;14939;43.596;1.320;2023-04-25T08:54:30;12.60;99.90
27506;DHT22;14939;43.596;1.320;2023-04-25T08:56:57;12.40;99.90
27506;DHT22;14939;43.596;1.320;2023-04-25T08:59:23;12.60;99.90
27506;DHT22;14939;43.596;1.320;2023-04-25T09:01:50;12.70;99.90
27506;DHT22;14939;43.596;1.320;2023-04-25T09:04:18;12.80;99.90
27506;DHT22;14939;43.596;1.320;2023-04-25T09:06:44;12.90;99.90
27506;DHT22;14939;43.596;1.320;2023-04-25T09:09:10;13.00;99.90
27506;DHT22;14939;43.596;1.320;2023-04-25T09:11:37;13.00;99.90
27506;DHT22;14939;43.596;1.320;2023-04-25T09:14:17;13.10;99.90
27506;DHT22;14939;43.596;1.320;2023-04-25T09:19:29;13.50;99.90
27506;DHT22;14939;43.596;1.320;2023-04-25T09:21:57;13.40;99.90
27506;DHT22;14939;43.596;1.320;2023-04-25T09:24:43;13.30;99.90
27506;DHT22;14939;43.596;1.320;2023-04-25T09:27:12;13.30;99.90
27506;DHT22;14939;43.596;1.320;2023-04-25T09:29:40;13.30;99.90
27506;DHT22;14939;43.596;1.320;2023-04-25T09:32:24;13.50;99.90
27506;DHT22;14939;43.596;1.320;2023-04-25T09:34:52;13.40;99.90
27506;DHT22;14939;43.596;1.320;2023-04-25T09:37:20;13.50;99.90
27506;DHT22;14939;43.596;1.320;2023-04-25T09:39:56;13.50;99.90
27506;DHT22;14939;43.596;1.320;2023-04-25T09:42:26;13.50;99.90
27506;DHT22;14939;43.596;1.320;2023-04-25T09:44:55;13.50;99.90
27506;DHT22;14939;43.596;1.320;2023-04-25T09:47:23;13.40;99.90
27506;DHT22;14939;43.596;1.320;2023-04-25T09:49:50;13.50;99.90
27506;DHT22;14939;43.596;1.320;2023-04-25T09:52:25;13.30;99.90
27506;DHT22;14939;43.596;1.320;2023-04-25T09:54:51;13.20;99.90
27506;DHT22;14939;43.596;1.320;2023-04-25T09:57:19;13.40;99.90
27506;DHT22;14939;43.596;1.320;2023-04-25T10:02:17;13.40;99.90
27506;DHT22;14939;43.596;1.320;2023-04-25T10:04:48;13.60;99.90
27506;DHT22;14939;43.596;1.320;2023-04-25T10:07:14;13.90;99.90
27506;DHT22;14939;43.596;1.320;2023-04-25T10:09:41;14.00;99.90
27506;DHT22;14939;43.596;1.320;2023-04-25T10:12:08;13.90;99.90
27506;DHT22;14939;43.596;1.320;2023-04-25T10:14:34;13.70;99.90
27506;DHT22;14939;43.596;1.320;2023-04-25T10:17:01;13.80;99.90
27506;DHT22;14939;43.596;1.320;2023-04-25T10:19:27;14.00;99.90
27506;DHT22;14939;43.596;1.320;2023-04-25T10:24:31;14.60;99.90
27506;DHT22;14939;43.596;1.320;2023-04-25T10:26:58;15.00;99.90
27506;DHT22;14939;43.596;1.320;2023-04-25T10:29:25;15.10;99.90
27506;DHT22;14939;43.596;1.320;2023-04-25T10:31:51;15.10;99.90
27506;DHT22;14939;43.596;1.320;2023-04-25T10:34:17;15.00;99.90
27506;DHT22;14939;43.596;1.320;2023-04-25T10:36:43;14.80;99.90
27506;DHT22;14939;43.596;1.320;2023-04-25T10:39:24;14.80;99.90
27506;DHT22;14939;43.596;1.320;2023-04-25T10:41:57;14.80;99.90
27506;DHT22;14939;43.596;1.320;2023-04-25T10:44:29;14.70;99.90
27506;DHT22;14939;43.596;1.320;2023-04-25T10:47:02;14.70;99.90
27506;DHT22;14939;43.596;1.320;2023-04-25T10:49:37;14.90;99.90
27506;DHT22;14939;43.596;1.320;2023-04-25T10:52:24;14.70;99.90
27506;DHT22;14939;43.596;1.320;2023-04-25T10:54:57;14.40;99.90
27506;DHT22;14939;43.596;1.320;2023-04-25T10:57:40;14.40;99.90
27506;DHT22;14939;43.596;1.320;2023-04-25T11:00:25;14.70;99.90
27506;DHT22;14939;43.596;1.320;2023-04-25T11:02:59;15.00;99.90
27506;DHT22;14939;43.596;1.320;2023-04-25T11:05:35;15.20;99.90
27506;DHT22;14939;43.596;1.320;2023-04-25T11:08:02;15.20;99.90
27506;DHT22;14939;43.596;1.320;2023-04-25T11:10:33;15.50;99.90
27506;DHT22;14939;43.596;1.320;2023-04-25T11:13:02;15.40;99.90
27506;DHT22;14939;43.596;1.320;2023-04-25T11:15:28;15.50;99.90
27506;DHT22;14939;43.596;1.320;2023-04-25T11:18:03;15.80;99.90
27506;DHT22;14939;43.596;1.320;2023-04-25T11:20:29;15.70;99.90
27506;DHT22;14939;43.596;1.320;2023-04-25T11:23:20;15.50;99.90
27506;DHT22;14939;43.596;1.320;2023-04-25T11:25:45;15.70;99.90
27506;DHT22;14939;43.596;1.320;2023-04-25T11:28:11;15.70;99.90
27506;DHT22;14939;43.596;1.320;2023-04-25T11:30:36;15.90;99.90
27506;DHT22;14939;43.596;1.320;2023-04-25T11:33:02;15.80;99.90
27506;DHT22;14939;43.596;1.320;2023-04-25T11:35:28;15.80;99.90
27506;DHT22;14939;43.596;1.320;2023-04-25T11:37:54;15.80;99.90
27506;DHT22;14939;43.596;1.320;2023-04-25T11:40:20;16.00;99.90
27506;DHT22;14939;43.596;1.320;2023-04-25T11:42:47;16.00;99.90
27506;DHT22;14939;43.596;1.320;2023-04-25T11:45:13;16.00;99.90
27506;DHT22;14939;43.596;1.320;2023-04-25T11:47:40;16.00;99.90
27506;DHT22;14939;43.596;1.320;2023-04-25T11:50:07;16.20;99.90
27506;DHT22;14939;43.596;1.320;2023-04-25T11:52:44;16.20;99.90
27506;DHT22;14939;43.596;1.320;2023-04-25T11:55:15;16.30;99.90
27506;DHT22;14939;43.596;1.320;2023-04-25T11:57:42;16.40;99.90
27506;DHT22;14939;43.596;1.320;2023-04-25T12:00:21;16.30;99.90
27506;DHT22;14939;43.596;1.320;2023-04-25T12:02:52;16.30;99.90
27506;DHT22;14939;43.596;1.320;2023-04-25T12:05:18;16.00;99.90
27506;DHT22;14939;43.596;1.320;2023-04-25T12:07:46;15.70;99.90
27506;DHT22;14939;43.596;1.320;2023-04-25T12:10:13;15.70;99.90
27506;DHT22;14939;43.596;1.320;2023-04-25T12:12:44;16.00;99.90
27506;DHT22;14939;43.596;1.320;2023-04-25T12:15:16;16.10;99.90
27506;DHT22;14939;43.596;1.320;2023-04-25T12:17:46;16.00;99.90
27506;DHT22;14939;43.596;1.320;2023-04-25T12:20:24;15.90;99.90
27506;DHT22;14939;43.596;1.320;2023-04-25T12:22:51;16.00;99.90
27506;DHT22;14939;43.596;1.320;2023-04-25T12:33:29;16.30;99.90
27506;DHT22;14939;43.596;1.320;2023-04-25T12:35:56;16.40;99.90
27506;DHT22;14939;43.596;1.320;2023-04-25T12:38:30;16.40;99.90
27506;DHT22;14939;43.596;1.320;2023-04-25T12:40:59;16.50;99.90
27506;DHT22;14939;43.596;1.320;2023-04-25T12:43:26;16.40;99.90
27506;DHT22;14939;43.596;1.320;2023-04-25T12:45:55;16.30;99.90
27506;DHT22;14939;43.596;1.320;2023-04-25T12:48:22;16.00;99.90
27506;DHT22;14939;43.596;1.320;2023-04-25T12:50:48;16.00;99.90
27506;DHT22;14939;43.596;1.320;2023-04-25T12:53:19;15.60;99.90
27506;DHT22;14939;43.596;1.320;2023-04-25T12:55:46;15.60;99.90
27506;DHT22;14939;43.596;1.320;2023-04-25T12:58:13;16.00;99.90
27506;DHT22;14939;43.596;1.320;2023-04-25T13:00:39;16.30;99.90
27506;DHT22;14939;43.596;1.320;2023-04-25T13:03:04;16.30;99.90
27506;DHT22;14939;43.596;1.320;2023-04-25T13:05:30;16.20;99.90
27506;DHT22;14939;43.596;1.320;2023-04-25T13:07:56;16.10;99.90
27506;DHT22;14939;43.596;1.320;2023-04-25T13:10:22;16.20;99.90
27506;DHT22;14939;43.596;1.320;2023-04-25T13:12:48;16.20;99.90
27506;DHT22;14939;43.596;1.320;2023-04-25T13:15:14;16.20;99.90
27506;DHT22;14939;43.596;1.320;2023-04-25T13:17:41;16.20;99.90
27506;DHT22;14939;43.596;1.320;2023-04-25T13:20:07;16.30;99.90
27506;DHT22;14939;43.596;1.320;2023-04-25T13:22:38;16.40;99.90
27506;DHT22;14939;43.596;1.320;2023-04-25T13:25:05;16.10;99.90
27506;DHT22;14939;43.596;1.320;2023-04-25T13:27:32;15.90;99.90
27506;DHT22;14939;43.596;1.320;2023-04-25T13:30:00;15.70;99.90
27506;DHT22;14939;43.596;1.320;2023-04-25T13:32:26;15.50;99.90
27506;DHT22;14939;43.596;1.320;2023-04-25T13:34:53;15.80;99.90
27506;DHT22;14939;43.596;1.320;2023-04-25T13:37:18;16.00;99.90
27506;DHT22;14939;43.596;1.320;2023-04-25T13:39:44;16.00;99.90
27506;DHT22;14939;43.596;1.320;2023-04-25T13:42:10;16.50;99.90
27506;DHT22;14939;43.596;1.320;2023-04-25T13:44:36;16.70;99.90
27506;DHT22;14939;43.596;1.320;2023-04-25T13:47:03;17.00;99.90
27506;DHT22;14939;43.596;1.320;2023-04-25T13:49:29;16.70;99.90
27506;DHT22;14939;43.596;1.320;2023-04-25T13:51:54;16.50;99.90
27506;DHT22;14939;43.596;1.320;2023-04-25T13:54:20;16.40;99.90
27506;DHT22;14939;43.596;1.320;2023-04-25T13:56:46;16.30;99.90
27506;DHT22;14939;43.596;1.320;2023-04-25T13:59:12;16.00;99.90
27506;DHT22;14939;43.596;1.320;2023-04-25T14:01:37;15.80;99.90
27506;DHT22;14939;43.596;1.320;2023-04-25T14:04:03;15.90;99.90
27506;DHT22;14939;43.596;1.320;2023-04-25T14:06:30;16.00;99.90
27506;DHT22;14939;43.596;1.320;2023-04-25T14:08:56;16.00;99.90
27506;DHT22;14939;43.596;1.320;2023-04-25T14:11:22;15.80;99.90
27506;DHT22;14939;43.596;1.320;2023-04-25T14:13:48;15.80;99.90
27506;DHT22;14939;43.596;1.320;2023-04-25T14:16:15;16.00;99.90
27506;DHT22;14939;43.596;1.320;2023-04-25T14:18:41;16.00;99.90
27506;DHT22;14939;43.596;1.320;2023-04-25T14:21:07;15.70;99.90
27506;DHT22;14939;43.596;1.320;2023-04-25T14:23:33;15.80;99.90
27506;DHT22;14939;43.596;1.320;2023-04-25T14:25:59;15.80;99.90
27506;DHT22;14939;43.596;1.320;2023-04-25T14:28:24;15.70;99.90
27506;DHT22;14939;43.596;1.320;2023-04-25T14:30:50;16.10;99.90
27506;DHT22;14939;43.596;1.320;2023-04-25T14:33:16;16.00;99.90
27506;DHT22;14939;43.596;1.320;2023-04-25T14:35:41;15.90;99.90
27506;DHT22;14939;43.596;1.320;2023-04-25T14:38:07;15.90;99.90
27506;DHT22;14939;43.596;1.320;2023-04-25T14:40:33;15.90;99.90
27506;DHT22;14939;43.596;1.320;2023-04-25T14:42:59;16.00;99.90
27506;DHT22;14939;43.596;1.320;2023-04-25T14:45:25;16.00;99.90
27506;DHT22;14939;43.596;1.320;2023-04-25T14:47:51;15.90;99.90
27506;DHT22;14939;43.596;1.320;2023-04-25T14:50:17;15.90;99.90
27506;DHT22;14939;43.596;1.320;2023-04-25T14:52:42;15.80;99.90
27506;DHT22;14939;43.596;1.320;2023-04-25T14:55:09;15.70;99.90
27506;DHT22;14939;43.596;1.320;2023-04-25T14:57:35;15.80;99.90
27506;DHT22;14939;43.596;1.320;2023-04-25T15:00:01;15.90;99.90
27506;DHT22;14939;43.596;1.320;2023-04-25T15:02:28;15.90;99.90
27506;DHT22;14939;43.596;1.320;2023-04-25T15:04:54;15.80;99.90
27506;DHT22;14939;43.596;1.320;2023-04-25T15:07:21;15.60;99.90
27506;DHT22;14939;43.596;1.320;2023-04-25T15:09:47;15.40;99.90
27506;DHT22;14939;43.596;1.320;2023-04-25T15:12:13;15.40;99.90
27506;DHT22;14939;43.596;1.320;2023-04-25T15:14:40;15.40;99.90
27506;DHT22;14939;43.596;1.320;2023-04-25T15:17:05;15.40;99.90
27506;DHT22;14939;43.596;1.320;2023-04-25T15:19:32;15.50;99.90
27506;DHT22;14939;43.596;1.320;2023-04-25T15:21:58;15.40;99.90
27506;DHT22;14939;43.596;1.320;2023-04-25T15:24:26;15.20;99.90
27506;DHT22;14939;43.596;1.320;2023-04-25T15:26:52;15.00;99.90
27506;DHT22;14939;43.596;1.320;2023-04-25T15:29:18;15.00;99.90
27506;DHT22;14939;43.596;1.320;2023-04-25T15:31:44;14.90;99.90
27506;DHT22;14939;43.596;1.320;2023-04-25T15:34:10;15.10;99.90
27506;DHT22;14939;43.596;1.320;2023-04-25T15:36:36;15.10;99.90
27506;DHT22;14939;43.596;1.320;2023-04-25T15:39:02;15.00;99.90
27506;DHT22;14939;43.596;1.320;2023-04-25T15:41:28;15.00;99.90
27506;DHT22;14939;43.596;1.320;2023-04-25T15:43:54;15.00;99.90
27506;DHT22;14939;43.596;1.320;2023-04-25T15:46:20;15.10;99.90